createdAt,value
2022-12-04T00:02:02.219Z,100661.50
2022-12-04T00:04:28.679Z,100663.41
2022-12-04T00:06:58.684Z,100669.50
2022-12-04T00:09:25.462Z,100669.50
2022-12-04T00:11:51.815Z,100674.44
2022-12-04T00:14:18.124Z,100675.56
2022-12-04T00:16:44.541Z,100669.25
2022-12-04T00:19:10.903Z,100671.16
2022-12-04T00:21:37.263Z,100670.06
2022-12-04T00:24:03.588Z,100666.47
2022-12-04T00:26:31.250Z,100668.94
2022-12-04T00:28:57.612Z,100669.22
2022-12-04T00:31:23.983Z,100664.25
2022-12-04T00:33:50.355Z,100666.19
2022-12-04T00:36:16.715Z,100665.38
2022-12-04T00:38:44.138Z,100660.41
2022-12-04T00:41:10.476Z,100660.97
2022-12-04T00:43:36.787Z,100668.41
2022-12-04T00:46:06.219Z,100659.88
2022-12-04T00:48:32.609Z,100660.44
2022-12-04T00:50:59.126Z,100657.69
2022-12-04T00:53:25.448Z,100661.53
2022-12-04T00:55:51.774Z,100662.34
2022-12-04T00:58:18.073Z,100659.31
2022-12-04T01:00:44.451Z,100654.09
2022-12-04T01:03:10.870Z,100659.59
2022-12-04T01:05:37.300Z,100657.41
2022-12-04T01:08:03.728Z,100655.72
2022-12-04T01:10:30.077Z,100653.53
2022-12-04T01:12:56.400Z,100646.66
2022-12-04T01:15:22.725Z,100644.72
2022-12-04T01:17:49.083Z,100649.41
2022-12-04T01:20:15.420Z,100648.88
2022-12-04T01:22:41.777Z,100648.88
2022-12-04T01:25:08.101Z,100646.38
2022-12-04T01:27:34.423Z,100635.06
2022-12-04T01:30:00.824Z,100646.38
2022-12-04T01:32:27.137Z,100635.38
2022-12-04T01:34:53.468Z,100637.28
2022-12-04T01:37:19.781Z,100635.91
2022-12-04T01:39:46.125Z,100634.56
2022-12-04T01:42:12.497Z,100637.03
2022-12-04T01:44:38.844Z,100637.53
2022-12-04T01:47:05.173Z,100624.34
2022-12-04T01:49:31.534Z,100623.50
2022-12-04T01:51:57.838Z,100616.37
2022-12-04T01:54:28.810Z,100606.41
2022-12-04T01:56:55.378Z,100621.31
2022-12-04T01:59:21.719Z,100609.22
2022-12-04T02:01:48.083Z,100601.50
2022-12-04T02:04:14.460Z,100596.56
2022-12-04T02:06:40.772Z,100588.81
2022-12-04T02:09:07.127Z,100588.81
2022-12-04T02:11:33.456Z,100588.81
2022-12-04T02:13:59.866Z,100584.97
2022-12-04T02:16:26.244Z,100582.44
2022-12-04T02:18:52.618Z,100579.19
2022-12-04T02:21:18.921Z,100575.31
2022-12-04T02:23:49.267Z,100581.38
2022-12-04T02:26:15.578Z,100586.34
2022-12-04T02:28:41.889Z,100583.03
2022-12-04T02:31:08.242Z,100581.34
2022-12-04T02:33:34.643Z,100584.09
2022-12-04T02:36:00.956Z,100581.34
2022-12-04T02:38:27.300Z,100573.69
2022-12-04T02:40:53.630Z,100568.44
2022-12-04T02:43:19.990Z,100570.91
2022-12-04T02:45:46.688Z,100569.28
2022-12-04T02:48:13.071Z,100576.97
2022-12-04T02:50:39.415Z,100570.88
2022-12-04T02:53:05.741Z,100582.47
2022-12-04T02:55:32.085Z,100575.28
2022-12-04T02:57:58.414Z,100575.31
2022-12-04T03:00:24.741Z,100580.81
2022-12-04T03:02:51.727Z,100574.22
2022-12-04T03:05:18.106Z,100569.00
2022-12-04T03:07:44.506Z,100566.22
2022-12-04T03:10:11.187Z,100566.22
2022-12-04T03:12:37.537Z,100561.81
2022-12-04T03:15:03.949Z,100548.31
2022-12-04T03:17:30.283Z,100556.81
2022-12-04T03:19:56.884Z,100557.97
2022-12-04T03:22:23.963Z,100559.56
2022-12-04T03:24:50.281Z,100557.38
2022-12-04T03:27:16.596Z,100562.87
2022-12-04T03:29:42.970Z,100567.53
2022-12-04T03:32:09.382Z,100576.09
2022-12-04T03:34:35.712Z,100572.00
2022-12-04T03:37:02.035Z,100571.44
2022-12-04T03:39:28.349Z,100566.75
2022-12-04T03:41:54.732Z,100567.03
2022-12-04T03:44:21.070Z,100562.59
2022-12-04T03:46:47.377Z,100562.63
2022-12-04T03:49:14.031Z,100560.91
2022-12-04T03:51:40.359Z,100566.44
2022-12-04T03:54:06.675Z,100567.25
2022-12-04T03:56:33.064Z,100561.22
2022-12-04T03:58:59.387Z,100567.53
2022-12-04T04:01:25.758Z,100567.56
2022-12-04T04:03:52.173Z,100565.66
2022-12-04T04:06:18.469Z,100569.50
2022-12-04T04:08:44.819Z,100578.28
2022-12-04T04:11:11.291Z,100571.44
2022-12-04T04:13:56.629Z,100568.69
2022-12-04T04:16:41.513Z,100562.84
2022-12-04T04:19:26.652Z,100573.56
2022-12-04T04:22:11.632Z,100569.94
2022-12-04T04:24:37.954Z,100571.63
2022-12-04T04:27:04.297Z,100575.47
2022-12-04T04:29:30.602Z,100568.84
2022-12-04T04:31:56.942Z,100576.28
2022-12-04T04:34:23.371Z,100580.41
2022-12-04T04:36:49.719Z,100578.47
2022-12-04T04:39:16.034Z,100566.91
2022-12-04T04:41:42.349Z,100575.97
2022-12-04T04:44:08.655Z,100574.59
2022-12-04T04:46:35.077Z,100570.41
2022-12-04T04:49:01.475Z,100566.84
2022-12-04T04:51:27.791Z,100550.62
2022-12-04T04:53:54.100Z,100562.72
2022-12-04T04:56:20.416Z,100560.56
2022-12-04T04:58:46.779Z,100572.91
2022-12-04T05:01:13.276Z,100561.28
2022-12-04T05:03:39.624Z,100563.56
2022-12-04T05:06:06.702Z,100560.22
2022-12-04T05:08:33.033Z,100558.53
2022-12-04T05:10:59.361Z,100555.22
2022-12-04T05:13:25.671Z,100558.81
2022-12-04T05:15:52.068Z,100562.91
2022-12-04T05:18:18.410Z,100560.62
2022-12-04T05:20:44.717Z,100553.47
2022-12-04T05:23:11.027Z,100557.38
2022-12-04T05:25:37.343Z,100561.53
2022-12-04T05:28:03.674Z,100558.00
2022-12-04T05:30:30.010Z,100556.22
2022-12-04T05:32:56.322Z,100550.97
2022-12-04T05:35:22.669Z,100554.31
2022-12-04T05:37:49.042Z,100545.50
2022-12-04T05:40:15.395Z,100549.94
2022-12-04T05:42:41.746Z,100548.00
2022-12-04T05:45:08.072Z,100546.88
2022-12-04T05:47:34.382Z,100544.97
2022-12-04T05:50:00.693Z,100549.69
2022-12-04T05:52:27.011Z,100547.44
2022-12-04T05:54:53.336Z,100540.34
2022-12-04T05:57:19.656Z,100534.47
2022-12-04T05:59:45.970Z,100541.13
2022-12-04T06:02:12.414Z,100538.94
2022-12-04T06:04:38.776Z,100527.41
2022-12-04T06:07:05.178Z,100532.56
2022-12-04T06:09:31.497Z,100524.91
2022-12-04T06:11:58.113Z,100528.22
2022-12-04T06:14:24.437Z,100529.59
2022-12-04T06:16:50.854Z,100537.88
2022-12-04T06:19:17.263Z,100538.41
2022-12-04T06:21:43.613Z,100536.50
2022-12-04T06:24:09.978Z,100541.69
2022-12-04T06:26:36.298Z,100541.50
2022-12-04T06:29:02.640Z,100535.97
2022-12-04T06:31:29.087Z,100546.16
2022-12-04T06:33:55.453Z,100547.47
2022-12-04T06:36:21.778Z,100545.53
2022-12-04T06:38:48.119Z,100552.94
2022-12-04T06:41:14.438Z,100547.66
2022-12-04T06:43:40.804Z,100546.84
2022-12-04T06:46:07.187Z,100549.63
2022-12-04T06:48:33.559Z,100550.34
2022-12-04T06:50:59.927Z,100552.31
2022-12-04T06:53:27.839Z,100555.91
2022-12-04T06:55:55.012Z,100555.25
2022-12-04T06:58:21.336Z,100553.91
2022-12-04T07:00:47.768Z,100555.81
2022-12-04T07:03:14.151Z,100550.13
2022-12-04T07:05:40.476Z,100561.16
2022-12-04T07:08:06.908Z,100554.19
2022-12-04T07:10:33.309Z,100552.28
2022-12-04T07:12:59.626Z,100561.31
2022-12-04T07:15:26.804Z,100554.19
2022-12-04T07:17:53.115Z,100558.22
2022-12-04T07:20:19.431Z,100542.28
2022-12-04T07:22:45.766Z,100556.59
2022-12-04T07:25:12.087Z,100560.62
2022-12-04T07:27:38.389Z,100561.25
2022-12-04T07:30:04.716Z,100558.81
2022-12-04T07:32:31.027Z,100558.50
2022-12-04T07:34:57.333Z,100559.88
2022-12-04T07:37:23.633Z,100566.59
2022-12-04T07:39:49.942Z,100575.59
2022-12-04T07:42:19.692Z,100572.28
2022-12-04T07:44:50.316Z,100562.59
2022-12-04T07:47:16.639Z,100565.09
2022-12-04T07:49:42.964Z,100561.78
2022-12-04T07:52:09.280Z,100560.00
2022-12-04T07:54:35.593Z,100547.62
2022-12-04T07:57:01.951Z,100554.22
2022-12-04T07:59:28.298Z,100551.88
2022-12-04T08:01:54.693Z,100552.37
2022-12-04T08:04:21.092Z,100543.03
2022-12-04T08:06:47.649Z,100545.44
2022-12-04T08:09:13.994Z,100546.22
2022-12-04T08:11:40.374Z,100546.13
2022-12-04T08:14:08.959Z,100552.88
2022-12-04T08:16:35.412Z,100547.88
2022-12-04T08:20:53.698Z,100551.28
2022-12-04T08:23:20.013Z,100551.28
2022-12-04T08:25:46.351Z,100569.44
2022-12-04T08:28:12.748Z,100553.69
2022-12-04T08:30:39.113Z,100553.13
2022-12-04T08:33:05.469Z,100555.47
2022-12-04T08:35:31.803Z,100561.56
2022-12-04T08:37:58.407Z,100561.72
2022-12-04T08:40:24.714Z,100557.94
2022-12-04T08:42:51.044Z,100554.28
2022-12-04T08:45:17.362Z,100552.19
2022-12-04T08:47:46.862Z,100552.50
2022-12-04T08:50:15.623Z,100552.47
2022-12-04T08:52:41.984Z,100542.94
2022-12-04T08:55:08.412Z,100557.00
2022-12-04T08:57:34.720Z,100546.44
2022-12-04T09:00:01.268Z,100544.50
2022-12-04T09:02:27.582Z,100541.56
2022-12-04T09:04:54.036Z,100546.19
2022-12-04T09:07:20.437Z,100543.50
2022-12-04T09:09:48.510Z,100530.34
2022-12-04T09:12:15.755Z,100529.97
2022-12-04T09:14:42.350Z,100530.22
2022-12-04T09:17:08.725Z,100529.59
2022-12-04T09:19:36.039Z,100527.97
2022-12-04T09:22:02.390Z,100526.72
2022-12-04T09:24:28.730Z,100521.31
2022-12-04T09:26:55.110Z,100520.28
2022-12-04T09:29:21.441Z,100531.41
2022-12-04T09:31:47.770Z,100528.06
2022-12-04T09:34:14.090Z,100521.72
2022-12-04T09:36:40.426Z,100520.25
2022-12-04T09:39:06.794Z,100527.63
2022-12-04T09:41:33.136Z,100521.50
2022-12-04T09:43:59.518Z,100537.66
2022-12-04T09:46:25.913Z,100540.22
2022-12-04T09:48:52.340Z,100537.78
2022-12-04T09:51:19.744Z,100537.59
2022-12-04T09:53:46.064Z,100538.37
2022-12-04T09:56:12.397Z,100527.88
2022-12-04T09:58:38.735Z,100525.47
2022-12-04T10:01:05.078Z,100525.47
2022-12-04T10:03:31.496Z,100527.75
2022-12-04T10:05:57.849Z,100526.91
2022-12-04T10:08:24.192Z,100521.91
2022-12-04T10:10:50.571Z,100518.53
2022-12-04T10:13:16.928Z,100517.19
2022-12-04T10:15:43.363Z,100509.09
2022-12-04T10:18:09.684Z,100508.50
2022-12-04T10:20:36.008Z,100510.34
2022-12-04T10:23:02.409Z,100509.91
2022-12-04T10:25:28.725Z,100501.22
2022-12-04T10:27:55.057Z,100504.50
2022-12-04T10:30:21.404Z,100506.13
2022-12-04T10:32:47.718Z,100510.19
2022-12-04T10:35:14.027Z,100500.50
2022-12-04T10:37:40.340Z,100506.94
2022-12-04T10:40:06.664Z,100503.81
2022-12-04T10:42:33.041Z,100504.81
2022-12-04T10:44:59.449Z,100496.50
2022-12-04T10:47:25.851Z,100499.50
2022-12-04T10:49:52.163Z,100490.66
2022-12-04T10:52:18.579Z,100488.50
2022-12-04T10:54:44.971Z,100485.63
2022-12-04T10:57:11.345Z,100485.13
2022-12-04T10:59:37.663Z,100482.34
2022-12-04T11:02:07.056Z,100484.63
2022-12-04T11:04:33.783Z,100484.09
2022-12-04T11:07:00.178Z,100479.16
2022-12-04T11:09:26.571Z,100473.72
2022-12-04T11:11:52.962Z,100481.84
2022-12-04T11:14:19.289Z,100489.75
2022-12-04T11:16:45.787Z,100491.50
2022-12-04T11:19:12.127Z,100485.22
2022-12-04T11:21:38.449Z,100496.44
2022-12-04T11:24:04.877Z,100489.75
2022-12-04T11:26:35.115Z,100492.53
2022-12-04T11:29:01.697Z,100490.25
2022-12-04T11:31:28.087Z,100485.63
2022-12-04T11:33:54.448Z,100482.84
2022-12-04T11:36:20.829Z,100489.62
2022-12-04T11:38:47.178Z,100484.91
2022-12-04T11:41:13.501Z,100490.12
2022-12-04T11:43:39.823Z,100485.63
2022-12-04T11:46:06.903Z,100483.28
2022-12-04T11:48:33.225Z,100479.47
2022-12-04T11:50:59.533Z,100485.63
2022-12-04T11:53:25.913Z,100472.41
2022-12-04T11:55:52.217Z,100471.56
2022-12-04T11:58:18.521Z,100477.00
2022-12-04T12:00:44.977Z,100479.78
2022-12-04T12:03:11.588Z,100481.22
2022-12-04T12:05:38.057Z,100471.88
2022-12-04T12:08:04.409Z,100467.34
2022-12-04T12:10:32.002Z,100465.00
2022-12-04T12:12:58.349Z,100461.19
2022-12-04T12:15:24.949Z,100461.47
2022-12-04T12:17:51.263Z,100458.81
2022-12-04T12:20:17.638Z,100461.88
2022-12-04T12:22:43.970Z,100453.13
2022-12-04T12:25:10.297Z,100456.44
2022-12-04T12:27:36.756Z,100450.37
2022-12-04T12:30:03.117Z,100439.16
2022-12-04T12:32:29.524Z,100441.53
2022-12-04T12:34:55.893Z,100438.13
2022-12-04T12:37:22.559Z,100438.78
2022-12-04T12:39:48.925Z,100438.44
2022-12-04T12:42:15.234Z,100439.47
2022-12-04T12:44:41.565Z,100445.50
2022-12-04T12:47:08.187Z,100434.53
2022-12-04T12:49:34.510Z,100438.03
2022-12-04T12:52:00.844Z,100428.13
2022-12-04T12:54:27.189Z,100423.97
2022-12-04T12:56:53.589Z,100430.81
2022-12-04T12:59:19.964Z,100426.31
2022-12-04T13:01:46.407Z,100423.44
2022-12-04T13:04:12.824Z,100420.13
2022-12-04T13:06:39.172Z,100423.94
2022-12-04T13:09:06.012Z,100420.13
2022-12-04T13:11:32.353Z,100415.53
2022-12-04T13:13:58.775Z,100404.62
2022-12-04T13:16:25.124Z,100408.44
2022-12-04T13:18:51.530Z,100409.78
2022-12-04T13:21:17.851Z,100402.69
2022-12-04T13:23:44.170Z,100396.06
2022-12-04T13:26:10.551Z,100389.31
2022-12-04T13:28:37.970Z,100398.75
2022-12-04T13:31:04.570Z,100395.38
2022-12-04T13:33:30.967Z,100401.62
2022-12-04T13:35:57.303Z,100400.97
2022-12-04T13:38:23.629Z,100404.75
2022-12-04T13:40:50.001Z,100401.47
2022-12-04T13:43:16.449Z,100391.12
2022-12-04T13:45:42.790Z,100389.06
2022-12-04T13:48:09.104Z,100388.44
2022-12-04T13:50:35.433Z,100394.47
2022-12-04T13:53:01.791Z,100396.00
2022-12-04T13:55:28.134Z,100387.16
2022-12-04T13:57:54.619Z,100397.25
2022-12-04T14:00:20.937Z,100398.38
2022-12-04T14:02:47.305Z,100391.91
2022-12-04T14:05:13.651Z,100398.09
2022-12-04T14:07:40.156Z,100411.44
2022-12-04T14:10:06.629Z,100404.88
2022-12-04T14:12:33.009Z,100403.63
2022-12-04T14:14:59.382Z,100401.84
2022-12-04T14:17:25.770Z,100411.19
2022-12-04T14:19:52.089Z,100408.81
2022-12-04T14:22:18.386Z,100410.91
2022-12-04T14:24:44.729Z,100422.22
2022-12-04T14:27:12.099Z,100424.31
2022-12-04T14:29:38.614Z,100422.97
2022-12-04T14:32:04.932Z,100421.59
2022-12-04T14:34:32.002Z,100418.00
2022-12-04T14:36:58.418Z,100415.12
2022-12-04T14:39:24.897Z,100411.91
2022-12-04T14:41:51.212Z,100417.47
2022-12-04T14:44:17.562Z,100412.66
2022-12-04T14:46:43.926Z,100410.81
2022-12-04T14:49:10.391Z,100408.53
2022-12-04T14:51:36.714Z,100406.19
2022-12-04T14:54:03.583Z,100407.13
2022-12-04T14:56:29.902Z,100399.84
2022-12-04T14:58:56.228Z,100408.53
2022-12-04T15:01:28.346Z,100402.41
2022-12-04T15:03:56.106Z,100396.84
2022-12-04T15:06:22.467Z,100400.44
2022-12-04T15:08:48.800Z,100396.44
2022-12-04T15:11:34.019Z,100392.13
2022-12-04T15:14:00.339Z,100391.62
2022-12-04T15:16:26.809Z,100392.81
2022-12-04T15:18:53.226Z,100392.75
2022-12-04T15:21:19.544Z,100385.34
2022-12-04T15:23:45.949Z,100380.34
2022-12-04T15:26:12.283Z,100375.63
2022-12-04T15:28:38.605Z,100371.41
2022-12-04T15:31:04.958Z,100369.75
2022-12-04T15:33:31.313Z,100364.84
2022-12-04T15:35:57.631Z,100376.66
2022-12-04T15:40:57.009Z,100370.38
2022-12-04T15:43:23.318Z,100382.09
2022-12-04T15:45:49.645Z,100379.53
2022-12-04T15:48:15.962Z,100382.19
2022-12-04T15:50:42.269Z,100380.84
2022-12-04T15:53:08.630Z,100386.91
2022-12-04T15:55:34.952Z,100375.53
2022-12-04T15:58:01.302Z,100372.25
2022-12-04T16:00:27.654Z,100374.50
2022-12-04T16:02:53.968Z,100375.72
2022-12-04T16:05:20.290Z,100372.63
2022-12-04T16:07:46.620Z,100380.44
2022-12-04T16:10:12.941Z,100368.63
2022-12-04T16:12:39.370Z,100381.47
2022-12-04T16:15:05.691Z,100378.91
2022-12-04T16:17:32.035Z,100379.63
2022-12-04T16:19:58.356Z,100375.94
2022-12-04T16:22:24.762Z,100376.31
2022-12-04T16:24:51.140Z,100381.47
2022-12-04T16:27:17.559Z,100383.13
2022-12-04T16:29:44.710Z,100372.66
2022-12-04T16:32:11.055Z,100367.69
2022-12-04T16:34:37.367Z,100369.53
2022-12-04T16:37:03.701Z,100372.13
2022-12-04T16:39:30.020Z,100373.25
2022-12-04T16:41:56.363Z,100369.34
2022-12-04T16:44:22.683Z,100360.31
2022-12-04T16:46:49.027Z,100362.69
2022-12-04T16:49:15.384Z,100364.81
2022-12-04T16:51:41.794Z,100370.91
2022-12-04T16:54:08.159Z,100369.03
2022-12-04T16:56:34.485Z,100369.19
2022-12-04T16:59:00.798Z,100369.72
2022-12-04T17:01:27.170Z,100373.00
2022-12-04T17:03:53.625Z,100369.31
2022-12-04T17:06:20.117Z,100365.34
2022-12-04T17:08:46.521Z,100368.63
2022-12-04T17:11:13.145Z,100364.09
2022-12-04T17:13:39.454Z,100361.12
2022-12-04T17:16:05.838Z,100363.81
2022-12-04T17:18:32.601Z,100370.59
2022-12-04T17:20:58.965Z,100362.06
2022-12-04T17:23:25.339Z,100350.97
2022-12-04T17:25:51.680Z,100350.16
2022-12-04T17:28:18.010Z,100346.31
2022-12-04T17:30:44.386Z,100354.19
2022-12-04T17:33:10.753Z,100358.19
2022-12-04T17:35:37.066Z,100362.00
2022-12-04T17:38:06.163Z,100357.78
2022-12-04T17:40:32.765Z,100365.69
2022-12-04T17:42:59.096Z,100351.03
2022-12-04T17:45:25.555Z,100360.44
2022-12-04T17:47:51.898Z,100351.28
2022-12-04T17:50:18.228Z,100357.97
2022-12-04T17:52:44.539Z,100349.84
2022-12-04T17:55:10.861Z,100356.50
2022-12-04T17:57:37.198Z,100360.72
2022-12-04T18:00:03.563Z,100357.62
2022-12-04T18:02:29.935Z,100364.38
2022-12-04T18:04:56.678Z,100352.25
2022-12-04T18:07:23.374Z,100350.97
2022-12-04T18:09:49.746Z,100352.59
2022-12-04T18:12:16.086Z,100354.84
2022-12-04T18:14:42.448Z,100357.16
2022-12-04T18:17:08.829Z,100358.84
2022-12-04T18:19:35.183Z,100354.06
2022-12-04T18:22:01.539Z,100357.47
2022-12-04T18:24:27.911Z,100354.06
2022-12-04T18:26:54.227Z,100359.88
2022-12-04T18:29:20.558Z,100355.94
2022-12-04T18:31:48.993Z,100357.78
2022-12-04T18:34:15.366Z,100347.69
2022-12-04T18:36:41.673Z,100336.94
2022-12-04T18:39:08.321Z,100345.94
2022-12-04T18:41:34.694Z,100342.50
2022-12-04T18:44:03.159Z,100337.91
2022-12-04T18:46:29.509Z,100336.91
2022-12-04T18:48:55.886Z,100344.16
2022-12-04T18:51:22.345Z,100348.91
2022-12-04T18:53:48.698Z,100355.41
2022-12-04T18:56:15.098Z,100350.97
2022-12-04T18:58:41.832Z,100347.75
2022-12-04T19:01:08.332Z,100346.94
2022-12-04T19:03:34.697Z,100343.16
2022-12-04T19:06:01.095Z,100348.44
2022-12-04T19:08:32.898Z,100347.22
2022-12-04T19:11:00.601Z,100343.34
2022-12-04T19:13:26.912Z,100342.50
2022-12-04T19:15:53.281Z,100350.88
2022-12-04T19:18:19.634Z,100346.16
2022-12-04T19:20:46.006Z,100347.81
2022-12-04T19:23:12.386Z,100338.63
2022-12-04T19:25:38.776Z,100343.22
2022-12-04T19:28:05.123Z,100348.09
2022-12-04T19:30:31.537Z,100359.22
2022-12-04T19:32:57.962Z,100353.66
2022-12-04T19:35:24.343Z,100343.88
2022-12-04T19:37:52.705Z,100340.47
2022-12-04T19:40:19.378Z,100353.16
2022-12-04T19:42:45.707Z,100347.16
2022-12-04T19:45:12.239Z,100344.19
2022-12-04T19:47:38.554Z,100338.97
2022-12-04T19:50:04.854Z,100346.16
2022-12-04T19:52:31.194Z,100344.84
2022-12-04T19:54:57.534Z,100337.81
2022-12-04T19:57:23.846Z,100343.50
2022-12-04T19:59:50.180Z,100339.78
2022-12-04T20:02:16.588Z,100353.34
2022-12-04T20:04:43.378Z,100339.47
2022-12-04T20:07:09.716Z,100339.47
2022-12-04T20:09:36.089Z,100347.91
2022-12-04T20:12:03.194Z,100331.16
2022-12-04T20:14:29.514Z,100342.41
2022-12-04T20:16:55.912Z,100344.69
2022-12-04T20:19:22.583Z,100342.25
2022-12-04T20:21:48.979Z,100345.72
2022-12-04T20:24:15.340Z,100347.16
2022-12-04T20:26:41.738Z,100343.88
2022-12-04T20:29:08.056Z,100342.94
2022-12-04T20:31:34.386Z,100347.97
2022-12-04T20:34:00.719Z,100344.91
2022-12-04T20:36:27.060Z,100342.25
2022-12-04T20:38:55.348Z,100343.88
2022-12-04T20:41:21.673Z,100345.53
2022-12-04T20:43:48.004Z,100340.97
2022-12-04T20:46:14.475Z,100337.69
2022-12-04T20:48:46.563Z,100329.34
2022-12-04T20:51:12.875Z,100331.00
2022-12-04T20:53:39.199Z,100340.31
2022-12-04T20:56:05.528Z,100336.38
2022-12-04T20:58:31.864Z,100328.37
2022-12-04T21:00:58.280Z,100328.87
2022-12-04T21:03:24.735Z,100320.53
2022-12-04T21:05:51.066Z,100323.12
2022-12-04T21:08:37.356Z,100324.13
2022-12-04T21:11:03.675Z,100323.62
2022-12-04T21:13:48.875Z,100326.22
2022-12-04T21:16:17.800Z,100321.22
2022-12-04T21:18:44.175Z,100316.00
2022-12-04T21:21:10.477Z,100325.94
2022-12-04T21:23:36.802Z,100325.94
2022-12-04T21:26:03.145Z,100330.50
2022-12-04T21:28:31.266Z,100320.41
2022-12-04T21:30:57.638Z,100320.59
2022-12-04T21:33:23.989Z,100315.03
2022-12-04T21:35:50.323Z,100314.66
2022-12-04T21:38:16.639Z,100309.28
2022-12-04T21:40:42.967Z,100302.75
2022-12-04T21:43:09.272Z,100303.56
2022-12-04T22:00:06.014Z,100290.63
2022-12-04T22:02:32.671Z,100287.69
2022-12-04T22:04:59.046Z,100293.56
2022-12-04T22:07:25.414Z,100286.59
2022-12-04T22:09:51.748Z,100283.97
2022-12-04T22:12:49.138Z,100279.84
2022-12-04T22:15:04.396Z,100285.91
2022-12-04T22:17:30.729Z,100285.59
2022-12-04T22:19:57.406Z,100295.56
2022-12-04T22:22:23.931Z,100293.12
2022-12-04T22:24:50.250Z,100300.09
2022-12-04T22:27:16.698Z,100282.00
2022-12-04T22:29:51.210Z,100285.59
2022-12-04T22:32:17.914Z,100292.72
2022-12-04T22:34:44.233Z,100291.28
2022-12-04T22:37:10.607Z,100291.44
2022-12-04T22:39:36.955Z,100298.88
2022-12-04T22:42:06.889Z,100305.94
2022-12-04T22:44:33.192Z,100304.72
2022-12-04T22:46:59.633Z,100304.56
2022-12-04T22:49:25.978Z,100298.37
2022-12-04T22:51:52.315Z,100296.41
2022-12-04T22:54:18.635Z,100294.28
2022-12-04T22:56:44.980Z,100284.50
2022-12-04T22:59:11.382Z,100296.75
2022-12-04T23:01:37.731Z,100290.19
2022-12-04T23:04:04.083Z,100297.06
2022-12-04T23:06:30.431Z,100293.97
2022-12-04T23:08:56.760Z,100291.53
2022-12-04T23:11:23.189Z,100296.94
2022-12-04T23:13:49.739Z,100289.09
2022-12-04T23:16:20.070Z,100296.28
2022-12-04T23:18:46.951Z,100300.31
2022-12-04T23:21:13.283Z,100286.31
2022-12-04T23:23:39.586Z,100297.75
2022-12-04T23:26:05.973Z,100294.44
2022-12-04T23:28:32.293Z,100300.53
2022-12-04T23:30:58.711Z,100295.78
2022-12-04T23:33:25.051Z,100289.91
2022-12-04T23:35:51.359Z,100286.47
2022-12-04T23:38:17.691Z,100286.12
2022-12-04T23:40:44.047Z,100291.19
2022-12-04T23:43:10.349Z,100279.47
2022-12-04T23:45:36.814Z,100283.53
2022-12-04T23:48:03.119Z,100282.72
2022-12-04T23:50:29.431Z,100283.06
2022-12-04T23:52:55.788Z,100290.72
2022-12-04T23:55:22.144Z,100285.84
2022-12-04T23:57:48.535Z,100291.56
